createdAt,value
2023-01-30T00:01:18.045Z,9.97
2023-01-30T00:03:46.941Z,6.10
2023-01-30T00:06:16.904Z,6.37
2023-01-30T00:08:45.984Z,11.23
2023-01-30T00:11:17.731Z,9.40
2023-01-30T00:13:47.571Z,5.70
2023-01-30T00:16:16.050Z,8.47
2023-01-30T00:18:45.818Z,6.10
2023-01-30T00:21:16.364Z,5.93
2023-01-30T00:23:46.037Z,4.57
2023-01-30T00:26:16.426Z,4.97
2023-01-30T00:28:45.201Z,5.30
2023-01-30T00:31:14.868Z,6.20
2023-01-30T00:33:45.273Z,8.53
2023-01-30T00:36:13.650Z,7.20
2023-01-30T00:38:42.395Z,6.23
2023-01-30T00:41:16.231Z,6.60
2023-01-30T00:44:04.197Z,6.73
2023-01-30T00:46:52.560Z,16.40
2023-01-30T00:49:21.670Z,7.60
2023-01-30T00:51:50.368Z,8.60
2023-01-30T00:54:21.256Z,8.50
2023-01-30T00:56:50.595Z,8.13
2023-01-30T00:59:21.900Z,7.80
2023-01-30T01:01:53.484Z,6.60
2023-01-30T01:04:24.683Z,6.93
2023-01-30T01:06:53.934Z,7.83
2023-01-30T01:09:22.449Z,6.37
2023-01-30T01:11:50.631Z,7.43
2023-01-30T01:14:23.439Z,10.40
2023-01-30T01:16:52.981Z,7.40
2023-01-30T01:19:21.556Z,8.50
2023-01-30T01:21:49.994Z,7.07
2023-01-30T01:24:18.507Z,9.30
2023-01-30T01:27:04.583Z,8.20
2023-01-30T01:29:37.261Z,5.40
2023-01-30T01:32:06.233Z,6.17
2023-01-30T01:34:37.656Z,4.37
2023-01-30T01:37:11.132Z,8.03
2023-01-30T01:39:57.087Z,5.17
2023-01-30T01:42:27.280Z,5.97
2023-01-30T01:45:17.964Z,5.87
2023-01-30T01:47:53.666Z,5.47
2023-01-30T01:50:26.657Z,4.97
2023-01-30T01:52:57.854Z,5.10
2023-01-30T01:55:30.209Z,7.23
2023-01-30T01:58:05.488Z,8.33
2023-01-30T02:00:37.971Z,6.43
2023-01-30T02:03:10.447Z,6.97
2023-01-30T02:05:43.487Z,7.37
2023-01-30T02:08:16.123Z,4.87
2023-01-30T02:10:52.160Z,4.87
2023-01-30T02:13:20.821Z,5.43
2023-01-30T02:15:50.712Z,4.53
2023-01-30T02:18:21.467Z,6.80
2023-01-30T02:21:04.187Z,4.37
2023-01-30T02:23:54.249Z,4.43
2023-01-30T02:26:55.131Z,5.47
2023-01-30T02:30:12.995Z,6.23
2023-01-30T02:32:52.055Z,6.43
2023-01-30T02:35:27.820Z,6.53
2023-01-30T02:38:05.961Z,8.00
2023-01-30T02:40:48.924Z,10.23
2023-01-30T02:43:28.024Z,7.30
2023-01-30T02:46:02.268Z,9.33
2023-01-30T02:48:37.908Z,7.30
2023-01-30T02:51:11.628Z,5.53
2023-01-30T02:53:40.284Z,4.40
2023-01-30T02:56:09.419Z,4.47
2023-01-30T02:58:44.293Z,5.40
2023-01-30T03:01:33.834Z,3.80
2023-01-30T03:04:28.019Z,7.40
2023-01-30T03:07:11.281Z,5.70
2023-01-30T03:09:48.812Z,6.40
2023-01-30T03:12:24.496Z,6.87
2023-01-30T03:14:57.539Z,4.20
2023-01-30T03:17:32.980Z,4.33
2023-01-30T03:20:03.145Z,3.30
2023-01-30T03:22:31.946Z,6.93
2023-01-30T03:25:00.961Z,4.50
2023-01-30T03:27:32.107Z,5.70
2023-01-30T03:30:04.055Z,6.20
2023-01-30T03:32:32.565Z,3.43
2023-01-30T03:35:02.384Z,4.20
2023-01-30T03:37:31.359Z,4.07
2023-01-30T03:40:01.269Z,2.90
2023-01-30T03:42:32.065Z,6.37
2023-01-30T03:45:00.491Z,5.80
2023-01-30T03:47:29.120Z,5.50
2023-01-30T03:49:57.411Z,6.50
2023-01-30T03:52:27.634Z,5.33
2023-01-30T03:54:56.159Z,4.20
2023-01-30T03:57:24.914Z,5.43
2023-01-30T03:59:53.590Z,5.67
2023-01-30T04:02:23.571Z,4.93
2023-01-30T04:04:55.546Z,4.60
2023-01-30T04:07:24.026Z,5.63
2023-01-30T04:09:53.525Z,4.57
2023-01-30T04:12:22.805Z,5.30
2023-01-30T04:14:51.499Z,4.73
2023-01-30T04:17:20.025Z,5.50
2023-01-30T04:19:48.789Z,4.73
2023-01-30T04:22:17.072Z,5.30
2023-01-30T04:24:45.899Z,6.17
2023-01-30T04:27:15.709Z,9.10
2023-01-30T04:29:44.059Z,7.23
2023-01-30T04:32:12.762Z,6.20
2023-01-30T04:34:42.244Z,7.30
2023-01-30T04:37:10.348Z,6.73
2023-01-30T04:39:39.613Z,6.50
2023-01-30T04:42:10.919Z,6.90
2023-01-30T04:44:41.990Z,6.23
2023-01-30T04:47:13.300Z,6.63
2023-01-30T04:49:41.782Z,8.60
2023-01-30T04:52:13.116Z,10.30
2023-01-30T04:54:43.881Z,9.00
2023-01-30T04:57:12.475Z,10.90
2023-01-30T04:59:42.746Z,12.13
2023-01-30T05:02:18.686Z,8.53
2023-01-30T05:04:46.881Z,8.53
2023-01-30T05:07:15.116Z,8.97
2023-01-30T05:09:43.494Z,5.27
2023-01-30T05:12:12.108Z,6.70
2023-01-30T05:14:43.471Z,7.77
2023-01-30T05:17:12.018Z,5.37
2023-01-30T05:19:40.465Z,7.50
2023-01-30T05:22:10.952Z,9.40
2023-01-30T05:24:39.953Z,9.33
2023-01-30T05:27:08.374Z,11.50
2023-01-30T05:29:39.128Z,11.00
2023-01-30T05:32:14.442Z,15.63
2023-01-30T05:34:42.834Z,13.33
2023-01-30T05:37:12.164Z,16.67
2023-01-30T05:39:41.259Z,14.63
2023-01-30T05:42:09.407Z,13.43
2023-01-30T05:44:38.225Z,9.07
2023-01-30T05:47:06.692Z,9.30
2023-01-30T05:49:36.261Z,10.37
2023-01-30T05:52:04.388Z,10.63
2023-01-30T05:54:32.607Z,9.17
2023-01-30T05:57:00.747Z,6.23
2023-01-30T05:59:28.896Z,11.03
2023-01-30T06:01:57.076Z,10.77
2023-01-30T06:04:25.673Z,8.90
2023-01-30T06:06:56.324Z,8.50
2023-01-30T06:09:24.875Z,8.03
2023-01-30T06:11:55.372Z,12.20
2023-01-30T06:14:23.492Z,8.93
2023-01-30T06:16:52.166Z,10.80
2023-01-30T06:19:22.915Z,9.30
2023-01-30T06:21:51.095Z,10.10
2023-01-30T06:24:20.853Z,9.30
2023-01-30T06:26:51.003Z,9.83
2023-01-30T06:29:25.896Z,8.47
2023-01-30T06:31:56.595Z,7.33
2023-01-30T06:37:21.894Z,11.80
2023-01-30T06:39:53.827Z,10.53
2023-01-30T06:42:22.154Z,9.40
2023-01-30T06:44:50.746Z,8.63
2023-01-30T06:47:20.272Z,8.53
2023-01-30T06:49:50.922Z,8.87
2023-01-30T06:52:19.020Z,9.00
2023-01-30T06:54:47.260Z,8.20
2023-01-30T06:57:16.977Z,10.83
2023-01-30T06:59:45.079Z,7.20
2023-01-30T07:02:15.513Z,7.20
2023-01-30T07:04:43.682Z,7.93
2023-01-30T07:07:11.803Z,9.43
2023-01-30T07:09:40.133Z,9.80
2023-01-30T07:12:08.417Z,8.57
2023-01-30T07:14:37.927Z,9.27
2023-01-30T07:17:06.019Z,9.87
2023-01-30T07:19:34.354Z,10.27
2023-01-30T07:22:03.336Z,12.43
2023-01-30T07:24:31.676Z,14.17
2023-01-30T07:27:00.897Z,10.07
2023-01-30T07:29:29.071Z,10.50
2023-01-30T07:31:58.641Z,11.37
2023-01-30T07:34:26.913Z,10.90
2023-01-30T07:36:55.188Z,9.60
2023-01-30T07:39:23.306Z,11.80
2023-01-30T07:41:51.408Z,12.40
2023-01-30T07:44:20.153Z,11.10
2023-01-30T07:46:48.486Z,12.87
2023-01-30T07:49:18.072Z,14.53
2023-01-30T07:51:46.290Z,17.80
2023-01-30T07:54:14.506Z,13.90
2023-01-30T07:56:42.871Z,17.27
2023-01-30T07:59:12.533Z,20.10
2023-01-30T08:01:40.736Z,20.70
2023-01-30T08:04:08.901Z,18.07
2023-01-30T08:06:39.712Z,18.70
2023-01-30T08:09:08.331Z,18.43
2023-01-30T08:11:36.720Z,17.97
2023-01-30T08:14:05.049Z,18.80
2023-01-30T08:16:34.181Z,16.30
2023-01-30T08:19:02.463Z,19.10
2023-01-30T08:21:30.549Z,18.83
2023-01-30T08:24:01.205Z,16.03
2023-01-30T08:26:29.578Z,24.00
2023-01-30T08:28:57.776Z,21.83
2023-01-30T08:31:25.944Z,20.07
2023-01-30T08:33:54.136Z,15.60
2023-01-30T08:36:22.617Z,13.20
2023-01-30T08:38:50.798Z,16.53
2023-01-30T08:41:20.484Z,14.20
2023-01-30T08:43:48.610Z,15.17
2023-01-30T08:46:17.563Z,12.77
2023-01-30T08:48:49.801Z,11.80
2023-01-30T08:51:18.744Z,14.47
2023-01-30T08:53:46.873Z,9.87
2023-01-30T08:56:14.921Z,15.90
2023-01-30T08:58:46.677Z,9.37
2023-01-30T09:01:14.850Z,11.83
2023-01-30T09:03:43.431Z,11.13
2023-01-30T09:06:11.563Z,14.03
2023-01-30T09:08:39.863Z,12.00
2023-01-30T09:11:07.961Z,9.37
2023-01-30T09:13:36.556Z,11.93
2023-01-30T09:16:08.089Z,12.80
2023-01-30T09:18:40.157Z,12.13
2023-01-30T09:21:10.960Z,15.40
2023-01-30T09:23:39.094Z,14.27
2023-01-30T09:26:07.253Z,17.73
2023-01-30T09:28:36.510Z,14.57
2023-01-30T09:31:06.751Z,14.00
2023-01-30T09:33:35.066Z,10.23
2023-01-30T09:36:04.860Z,14.97
2023-01-30T09:38:33.138Z,14.30
2023-01-30T09:41:21.885Z,16.07
2023-01-30T09:44:12.164Z,14.30
2023-01-30T09:46:49.569Z,19.87
2023-01-30T09:49:32.871Z,16.30
2023-01-30T09:52:13.290Z,14.83
2023-01-30T09:54:45.397Z,13.20
2023-01-30T09:57:20.979Z,15.17
2023-01-30T09:59:58.332Z,21.83
2023-01-30T10:02:40.838Z,17.90
2023-01-30T10:05:10.421Z,19.67
2023-01-30T10:08:07.303Z,15.50
2023-01-30T10:10:45.738Z,14.17
2023-01-30T10:13:37.015Z,15.03
2023-01-30T10:16:14.808Z,20.33
2023-01-30T10:19:02.359Z,17.80
2023-01-30T10:21:42.809Z,22.27
2023-01-30T10:24:42.452Z,13.87
2023-01-30T10:27:14.569Z,15.53
2023-01-30T10:29:47.954Z,18.40
2023-01-30T10:32:21.996Z,12.00
2023-01-30T10:34:55.296Z,14.60
2023-01-30T10:37:27.834Z,13.30
2023-01-30T10:40:04.649Z,13.07
2023-01-30T10:42:40.481Z,13.70
2023-01-30T10:45:14.566Z,18.00
2023-01-30T10:47:56.311Z,9.60
2023-01-30T10:50:32.224Z,11.60
2023-01-30T10:53:08.160Z,12.53
2023-01-30T10:55:43.534Z,14.10
2023-01-30T10:58:20.313Z,10.77
2023-01-30T11:00:55.497Z,16.87
2023-01-30T11:03:28.909Z,11.13
2023-01-30T11:06:02.580Z,11.33
2023-01-30T11:08:33.295Z,13.10
2023-01-30T11:11:02.362Z,9.90
2023-01-30T11:13:32.087Z,10.40
2023-01-30T11:16:05.498Z,13.00
2023-01-30T11:19:17.706Z,15.73
2023-01-30T11:21:34.932Z,11.40
2023-01-30T11:24:19.376Z,10.70
2023-01-30T11:26:48.801Z,10.97
2023-01-30T11:29:25.604Z,13.17
2023-01-30T11:31:54.937Z,13.63
2023-01-30T11:34:24.909Z,14.13
2023-01-30T11:36:54.405Z,10.30
2023-01-30T11:39:29.577Z,16.40
2023-01-30T11:42:04.904Z,15.43
2023-01-30T11:44:35.785Z,16.63
2023-01-30T11:47:08.712Z,16.67
2023-01-30T11:49:46.011Z,16.80
2023-01-30T11:52:31.371Z,16.50
2023-01-30T11:55:05.581Z,17.77
2023-01-30T11:57:43.328Z,15.30
2023-01-30T12:00:20.818Z,12.27
2023-01-30T12:02:51.006Z,10.30
2023-01-30T12:05:26.215Z,13.13
2023-01-30T12:08:14.226Z,10.97
2023-01-30T12:10:44.483Z,8.53
2023-01-30T12:13:21.506Z,9.50
2023-01-30T12:15:54.667Z,8.23
2023-01-30T12:18:36.163Z,7.23
2023-01-30T12:21:12.491Z,11.33
2023-01-30T12:23:47.587Z,7.83
2023-01-30T12:26:21.347Z,8.87
2023-01-30T12:28:56.409Z,9.00
2023-01-30T12:31:28.200Z,8.40
2023-01-30T12:33:56.815Z,8.53
2023-01-30T12:36:36.956Z,13.37
2023-01-30T12:39:19.111Z,8.37
2023-01-30T12:41:57.965Z,9.27
2023-01-30T12:44:44.157Z,8.27
2023-01-30T12:47:31.824Z,8.90
2023-01-30T12:50:14.347Z,11.60
2023-01-30T12:53:15.075Z,10.23
2023-01-30T12:55:55.342Z,9.93
2023-01-30T12:58:29.200Z,10.47
2023-01-30T13:01:08.496Z,8.80
2023-01-30T13:03:43.334Z,7.60
2023-01-30T13:06:34.079Z,9.60
2023-01-30T13:09:15.465Z,13.13
2023-01-30T13:11:56.048Z,9.93
2023-01-30T13:14:33.156Z,13.30
2023-01-30T13:17:16.942Z,12.60
2023-01-30T13:19:53.625Z,8.40
2023-01-30T13:22:25.997Z,9.10
2023-01-30T13:25:05.418Z,10.67
2023-01-30T13:27:40.142Z,9.37
2023-01-30T13:30:18.145Z,9.80
2023-01-30T13:32:50.466Z,9.77
2023-01-30T13:35:22.696Z,15.83
2023-01-30T13:37:54.621Z,13.30
2023-01-30T13:40:26.598Z,11.67
2023-01-30T13:43:01.735Z,11.30
2023-01-30T13:45:33.010Z,12.33
2023-01-30T13:48:17.019Z,13.47
2023-01-30T13:51:07.996Z,13.83
2023-01-30T13:53:42.831Z,13.03
2023-01-30T13:56:40.836Z,13.73
2023-01-30T13:59:24.074Z,12.80
2023-01-30T14:02:19.712Z,15.00
2023-01-30T14:04:53.364Z,11.00
2023-01-30T14:07:28.372Z,12.90
2023-01-30T14:10:16.792Z,12.20
2023-01-30T14:12:47.740Z,10.50
2023-01-30T14:15:29.980Z,15.27
2023-01-30T14:18:00.207Z,15.60
2023-01-30T14:20:30.095Z,13.90
2023-01-30T14:22:59.734Z,16.20
2023-01-30T14:25:44.845Z,11.80
2023-01-30T14:28:51.634Z,15.13
2023-01-30T14:31:54.704Z,15.30
2023-01-30T14:34:51.865Z,13.70
2023-01-30T14:37:47.843Z,16.70
2023-01-30T14:40:38.737Z,11.47
2023-01-30T14:43:41.193Z,11.73
2023-01-30T14:46:29.101Z,11.90
2023-01-30T14:49:05.609Z,15.30
2023-01-30T14:51:37.251Z,17.50
2023-01-30T14:54:20.680Z,17.40
2023-01-30T14:56:54.372Z,14.33
2023-01-30T14:59:27.784Z,18.60
2023-01-30T15:01:58.970Z,11.90
2023-01-30T15:04:33.036Z,14.00
2023-01-30T15:07:07.781Z,10.93
2023-01-30T15:09:38.377Z,14.53
2023-01-30T15:12:27.134Z,14.13
2023-01-30T15:15:08.432Z,15.90
2023-01-30T15:17:52.724Z,12.17
2023-01-30T15:20:35.737Z,11.53
2023-01-30T15:23:41.842Z,14.97
2023-01-30T15:26:21.781Z,11.70
2023-01-30T15:29:00.708Z,13.20
2023-01-30T15:31:29.016Z,18.80
2023-01-30T15:33:58.032Z,16.90
2023-01-30T15:36:30.219Z,15.67
2023-01-30T15:39:03.230Z,15.63
2023-01-30T15:41:33.771Z,17.03
2023-01-30T15:44:34.422Z,13.27
2023-01-30T15:47:20.006Z,20.50
2023-01-30T15:49:58.223Z,18.90
2023-01-30T15:52:38.238Z,16.43
2023-01-30T15:55:09.676Z,15.50
2023-01-30T15:57:41.157Z,13.60
2023-01-30T16:00:26.767Z,15.80
2023-01-30T16:02:55.660Z,13.63
2023-01-30T16:05:25.539Z,13.80
2023-01-30T16:07:56.924Z,17.57
2023-01-30T16:10:27.485Z,17.77
2023-01-30T16:12:57.241Z,17.30
2023-01-30T16:15:32.520Z,18.93
2023-01-30T16:18:05.688Z,15.67
2023-01-30T16:20:58.947Z,15.87
2023-01-30T16:23:33.416Z,17.10
2023-01-30T16:26:02.860Z,17.40
2023-01-30T16:28:32.688Z,15.50
2023-01-30T16:31:02.653Z,12.43
2023-01-30T16:33:36.634Z,17.37
2023-01-30T16:36:06.643Z,15.90
2023-01-30T16:41:34.093Z,14.20
2023-01-30T16:44:21.175Z,14.53
2023-01-30T16:46:57.250Z,17.43
2023-01-30T16:49:33.736Z,16.17
2023-01-30T16:52:06.602Z,15.40
2023-01-30T16:54:37.943Z,19.23
2023-01-30T16:57:06.730Z,15.37
2023-01-30T16:59:37.822Z,14.23
2023-01-30T17:02:08.118Z,17.77
2023-01-30T17:04:41.424Z,14.90
2023-01-30T17:07:34.510Z,20.83
2023-01-30T17:10:04.176Z,16.57
2023-01-30T17:12:46.057Z,20.57
2023-01-30T17:15:34.578Z,20.70
2023-01-30T17:18:03.486Z,26.43
2023-01-30T17:20:39.890Z,21.27
2023-01-30T17:23:11.009Z,19.40
2023-01-30T17:25:44.439Z,22.47
2023-01-30T17:28:23.481Z,16.87
2023-01-30T17:30:51.869Z,17.40
2023-01-30T17:33:20.270Z,21.37
2023-01-30T17:35:49.933Z,22.83
2023-01-30T17:38:18.090Z,17.53
2023-01-30T17:40:48.130Z,15.07
2023-01-30T17:43:16.389Z,15.97
2023-01-30T17:45:52.461Z,19.33
2023-01-30T17:48:20.705Z,21.37
2023-01-30T17:50:48.916Z,20.43
2023-01-30T17:53:17.049Z,17.23
2023-01-30T17:55:47.776Z,17.77
2023-01-30T17:58:18.283Z,19.70
2023-01-30T18:00:46.411Z,17.07
2023-01-30T18:03:16.439Z,20.43
2023-01-30T18:05:44.647Z,21.40
2023-01-30T18:08:14.050Z,17.27
2023-01-30T18:10:42.155Z,21.70
2023-01-30T18:13:12.146Z,19.13
2023-01-30T18:15:40.329Z,22.70
2023-01-30T18:18:13.068Z,22.50
2023-01-30T18:20:41.319Z,19.87
2023-01-30T18:23:09.578Z,20.43
2023-01-30T18:25:37.944Z,19.17
2023-01-30T18:28:08.601Z,20.23
2023-01-30T18:30:38.231Z,19.37
2023-01-30T18:33:07.502Z,21.23
2023-01-30T18:35:35.799Z,20.47
2023-01-30T18:38:03.895Z,20.43
2023-01-30T18:40:32.079Z,18.37
2023-01-30T18:43:00.370Z,22.53
2023-01-30T18:45:28.812Z,20.63
2023-01-30T18:47:59.455Z,18.93
2023-01-30T18:50:27.659Z,21.20
2023-01-30T18:52:56.009Z,23.87
2023-01-30T18:55:25.681Z,21.47
2023-01-30T18:57:53.982Z,23.30
2023-01-30T19:00:23.286Z,25.33
2023-01-30T19:02:55.259Z,33.07
2023-01-30T19:05:24.760Z,29.93
2023-01-30T19:07:53.237Z,31.07
2023-01-30T19:10:22.199Z,28.63
2023-01-30T19:13:07.926Z,36.30
2023-01-30T19:15:36.686Z,28.13
2023-01-30T19:18:05.069Z,33.43
2023-01-30T19:20:34.653Z,26.93
2023-01-30T19:23:02.800Z,26.60
2023-01-30T19:25:30.992Z,29.73
2023-01-30T19:27:59.131Z,28.33
2023-01-30T19:30:27.346Z,26.73
2023-01-30T19:32:58.658Z,28.93
2023-01-30T19:35:27.001Z,34.43
2023-01-30T19:38:00.466Z,28.97
2023-01-30T19:40:28.967Z,33.57
2023-01-30T19:43:05.719Z,27.58
2023-01-30T19:45:38.663Z,22.87
2023-01-30T19:48:09.168Z,22.85
2023-01-30T19:50:38.426Z,18.73
2023-01-30T19:53:08.138Z,20.83
2023-01-30T19:55:36.295Z,22.10
2023-01-30T19:58:04.981Z,20.58
2023-01-30T20:00:33.253Z,22.27
2023-01-30T20:03:01.832Z,22.00
2023-01-30T20:05:29.937Z,24.27
2023-01-30T20:07:58.246Z,24.58
2023-01-30T20:10:28.005Z,21.80
2023-01-30T20:12:56.192Z,21.70
2023-01-30T20:15:24.274Z,25.13
2023-01-30T20:17:52.477Z,22.30
2023-01-30T20:20:21.120Z,23.10
2023-01-30T20:22:49.686Z,25.37
2023-01-30T20:25:18.187Z,21.77
2023-01-30T20:27:47.741Z,22.73
2023-01-30T20:30:21.208Z,22.40
2023-01-30T20:32:55.136Z,21.55
2023-01-30T20:35:23.298Z,24.17
2023-01-30T20:37:51.443Z,24.92
2023-01-30T20:40:21.212Z,27.13
2023-01-30T20:42:51.123Z,24.90
2023-01-30T20:45:19.356Z,27.73
2023-01-30T20:47:47.523Z,29.05
2023-01-30T20:50:15.845Z,28.88
2023-01-30T20:52:44.184Z,28.33
2023-01-30T20:55:12.300Z,31.33
2023-01-30T20:57:43.422Z,28.67
2023-01-30T21:00:14.444Z,33.97
2023-01-30T21:02:42.932Z,35.17
2023-01-30T21:05:11.128Z,34.78
2023-01-30T21:07:39.223Z,37.38
2023-01-30T21:10:07.904Z,38.63
2023-01-30T21:12:36.020Z,44.13
2023-01-30T21:15:04.224Z,29.73
2023-01-30T21:17:33.751Z,36.55
2023-01-30T21:20:02.023Z,32.08
2023-01-30T21:22:30.093Z,33.67
2023-01-30T21:24:58.212Z,32.65
2023-01-30T21:27:28.479Z,29.13
2023-01-30T21:29:56.605Z,32.90
2023-01-30T21:32:24.689Z,28.85
2023-01-30T21:34:54.201Z,34.17
2023-01-30T21:37:39.550Z,25.00
2023-01-30T21:40:28.190Z,31.95
2023-01-30T21:43:13.548Z,32.00
2023-01-30T21:45:42.258Z,35.63
2023-01-30T21:48:10.527Z,32.72
2023-01-30T21:50:40.147Z,40.60
2023-01-30T21:53:08.398Z,46.25
2023-01-30T21:55:36.613Z,53.97
2023-01-30T21:58:04.911Z,44.60
2023-01-30T22:00:33.105Z,41.92
2023-01-30T22:03:01.226Z,37.53
2023-01-30T22:05:36.566Z,42.40
2023-01-30T22:08:06.591Z,42.05
2023-01-30T22:10:34.710Z,47.22
2023-01-30T22:13:02.862Z,47.38
2023-01-30T22:15:31.156Z,46.75
2023-01-30T22:17:59.320Z,40.03
2023-01-30T22:20:27.525Z,40.90
2023-01-30T22:22:55.857Z,40.83
2023-01-30T22:25:25.401Z,40.58
2023-01-30T22:27:53.604Z,37.03
2023-01-30T22:30:21.982Z,41.13
2023-01-30T22:32:53.865Z,38.65
2023-01-30T22:35:22.135Z,35.05
2023-01-30T22:37:50.647Z,38.20
2023-01-30T22:40:19.382Z,40.40
2023-01-30T22:42:50.150Z,41.35
2023-01-30T22:45:18.636Z,36.03
2023-01-30T22:47:47.105Z,45.85
2023-01-30T22:50:15.472Z,43.40
2023-01-30T22:52:43.656Z,41.15
2023-01-30T22:55:11.741Z,43.85
2023-01-30T22:57:40.488Z,45.88
2023-01-30T23:00:11.893Z,37.72
2023-01-30T23:02:40.454Z,37.10
2023-01-30T23:05:09.317Z,39.67
2023-01-30T23:07:38.104Z,34.38
2023-01-30T23:10:07.056Z,34.67
2023-01-30T23:12:52.090Z,34.20
2023-01-30T23:15:21.742Z,32.95
2023-01-30T23:18:08.400Z,29.60
2023-01-30T23:20:36.798Z,28.60
2023-01-30T23:23:07.116Z,33.45
2023-01-30T23:25:35.476Z,29.92
2023-01-30T23:28:03.761Z,33.00
2023-01-30T23:30:33.348Z,33.00
2023-01-30T23:33:09.546Z,35.33
2023-01-30T23:35:41.973Z,49.15
2023-01-30T23:38:23.690Z,39.97
2023-01-30T23:40:57.798Z,29.95
2023-01-30T23:43:32.485Z,31.27
2023-01-30T23:46:14.315Z,29.48
2023-01-30T23:48:46.037Z,32.35
2023-01-30T23:51:19.231Z,35.22
2023-01-30T23:53:53.314Z,30.88
2023-01-30T23:56:37.650Z,30.23
2023-01-30T23:59:12.295Z,22.20
